Time;durP1;ratioP1;P1;durP2;ratioP2;P2;SDS_P1;SDS_P2;PMS_P1;PMS_P2;Temp;Humidity;BMP_temperature;BMP_pressure;BME280_temperature;BME280_humidity;BME280_pressure;Samples;Min_cycle;Max_cycle;Signal;HPM_P1;HPM_P2
2022/06/26 00:01:15;;;;;;;48.58;26.38;;;17.00;99.90;;;;;;5053784;28;20048;-71
2022/06/26 00:03:41;;;;;;;53.38;26.23;;;17.10;99.90;;;;;;5052936;28;20079;-68
2022/06/26 00:06:06;;;;;;;50.25;27.27;;;17.10;99.90;;;;;;5052267;28;20367;-69
2022/06/26 00:08:32;;;;;;;46.95;25.00;;;17.10;99.90;;;;;;5053545;28;20075;-68
2022/06/26 00:10:57;;;;;;;50.67;26.55;;;17.00;99.90;;;;;;5053042;28;20021;-68
2022/06/26 00:13:23;;;;;;;46.90;24.70;;;17.10;99.90;;;;;;5053757;28;20067;-72
2022/06/26 00:15:49;;;;;;;46.55;24.75;;;17.10;99.90;;;;;;5053388;28;20017;-72
2022/06/26 00:18:14;;;;;;;50.45;25.92;;;17.10;99.90;;;;;;5053669;28;20051;-69
2022/06/26 00:20:40;;;;;;;52.83;27.23;;;17.10;99.90;;;;;;5053471;28;20013;-68
2022/06/26 00:23:06;;;;;;;45.45;25.98;;;17.00;99.90;;;;;;5053195;28;20021;-71
2022/06/26 00:25:32;;;;;;;46.33;24.70;;;17.10;99.90;;;;;;5052722;28;20025;-70
2022/06/26 00:27:57;;;;;;;46.20;23.52;;;17.10;99.90;;;;;;5053512;28;20154;-68
2022/06/26 00:30:23;;;;;;;50.28;24.77;;;17.10;99.90;;;;;;5053657;28;20123;-68
2022/06/26 00:32:49;;;;;;;47.53;24.98;;;17.10;99.90;;;;;;5052772;28;20122;-68
2022/06/26 00:35:14;;;;;;;46.47;24.65;;;17.10;99.90;;;;;;5053749;28;20024;-68
2022/06/26 00:37:40;;;;;;;47.55;24.15;;;17.20;99.90;;;;;;5051660;28;20040;-68
2022/06/26 00:40:06;;;;;;;48.25;24.45;;;17.20;99.90;;;;;;5052729;28;20024;-67
2022/06/26 00:42:32;;;;;;;45.53;21.88;;;17.20;99.90;;;;;;5052001;28;20025;-68
2022/06/26 00:44:58;;;;;;;44.40;23.30;;;17.20;99.90;;;;;;5052372;28;20020;-68
2022/06/26 00:47:24;;;;;;;43.60;24.48;;;17.10;99.90;;;;;;5053536;28;20335;-68
2022/06/26 00:49:50;;;;;;;44.17;24.90;;;17.20;99.90;;;;;;5052342;28;20044;-72
2022/06/26 00:52:17;;;;;;;41.38;23.55;;;17.20;99.90;;;;;;5053434;28;20029;-68
2022/06/26 00:54:43;;;;;;;45.53;26.15;;;17.20;99.90;;;;;;5053070;28;20025;-72
2022/06/26 00:57:09;;;;;;;42.38;23.80;;;17.20;99.90;;;;;;5052876;28;20386;-68
2022/06/26 00:59:36;;;;;;;41.05;22.55;;;17.10;99.90;;;;;;5052095;28;20025;-68
2022/06/26 01:02:02;;;;;;;41.30;22.95;;;17.10;99.90;;;;;;5053101;28;20020;-69
2022/06/26 01:04:28;;;;;;;45.33;25.00;;;17.10;99.90;;;;;;5053373;28;20059;-72
2022/06/26 01:06:54;;;;;;;42.28;21.67;;;17.10;99.90;;;;;;5053450;28;20136;-69
2022/06/26 01:09:20;;;;;;;45.67;25.08;;;17.10;99.90;;;;;;5053094;28;20050;-68
2022/06/26 01:11:46;;;;;;;45.28;25.67;;;17.10;99.90;;;;;;5052933;28;20017;-71
2022/06/26 01:14:12;;;;;;;43.95;23.20;;;17.00;99.90;;;;;;5052462;28;20048;-69
2022/06/26 01:16:39;;;;;;;47.45;25.30;;;17.00;99.90;;;;;;5052560;28;20025;-69
2022/06/26 01:19:06;;;;;;;44.83;23.58;;;17.00;99.90;;;;;;5052881;28;20025;-68
2022/06/26 01:21:33;;;;;;;48.42;23.88;;;17.00;99.90;;;;;;5052776;28;20176;-67
2022/06/26 01:23:59;;;;;;;50.55;26.40;;;17.00;99.90;;;;;;5052572;28;20413;-68
2022/06/26 01:26:25;;;;;;;48.75;25.80;;;17.00;99.90;;;;;;5051345;28;20021;-68
2022/06/26 01:28:52;;;;;;;48.05;24.13;;;17.00;99.90;;;;;;5053089;28;20443;-69
2022/06/26 01:31:19;;;;;;;50.25;25.23;;;17.00;99.90;;;;;;5052806;28;20025;-70
2022/06/26 01:33:46;;;;;;;51.00;25.38;;;16.90;99.90;;;;;;5053042;28;20017;-70
2022/06/26 01:36:12;;;;;;;49.38;24.38;;;16.90;99.90;;;;;;5052872;28;20067;-68
2022/06/26 01:38:37;;;;;;;45.22;23.35;;;16.90;99.90;;;;;;5052867;28;20029;-68
2022/06/26 01:41:03;;;;;;;48.17;23.27;;;16.90;99.90;;;;;;5052803;28;20029;-70
2022/06/26 01:43:32;;;;;;;48.20;23.50;;;16.80;99.90;;;;;;5051650;28;20132;-69
2022/06/26 01:45:59;;;;;;;46.28;22.40;;;16.80;99.90;;;;;;5052345;28;20374;-68
2022/06/26 01:48:25;;;;;;;50.30;23.75;;;16.80;99.90;;;;;;5052977;28;20025;-68
2022/06/26 01:50:52;;;;;;;47.50;24.67;;;16.80;99.90;;;;;;5052487;28;20017;-70
2022/06/26 01:53:17;;;;;;;46.03;23.17;;;16.80;99.90;;;;;;5053596;28;20021;-72
2022/06/26 01:55:43;;;;;;;45.22;23.50;;;16.80;99.90;;;;;;5056478;28;20143;-69
2022/06/26 01:58:09;;;;;;;47.10;23.25;;;16.70;99.90;;;;;;5056751;28;20477;-67
2022/06/26 02:00:38;;;;;;;47.70;23.40;;;16.70;99.90;;;;;;5056847;28;20025;-70
2022/06/26 02:03:04;;;;;;;42.88;20.50;;;16.70;99.90;;;;;;5056816;28;20013;-69
2022/06/26 02:05:30;;;;;;;44.08;21.42;;;16.60;99.90;;;;;;5055991;28;20029;-70
2022/06/26 02:07:56;;;;;;;47.88;23.35;;;16.60;99.90;;;;;;5056447;28;20024;-68
2022/06/26 02:15:54;;;;;;;45.97;22.02;;;16.60;99.90;;;;;;5056163;28;20071;-69
2022/06/26 02:18:20;;;;;;;45.50;22.88;;;16.50;99.90;;;;;;5056256;28;20446;-68
2022/06/26 02:20:46;;;;;;;47.78;23.52;;;16.50;99.90;;;;;;5056317;28;20033;-70
2022/06/26 02:23:13;;;;;;;43.42;22.17;;;16.50;99.90;;;;;;5055787;28;20066;-68
2022/06/26 02:25:39;;;;;;;47.65;24.00;;;16.50;99.90;;;;;;5056356;28;20029;-71
2022/06/26 02:28:05;;;;;;;49.53;24.52;;;16.50;99.90;;;;;;5054827;28;20409;-73
2022/06/26 02:30:31;;;;;;;48.00;22.27;;;16.50;99.90;;;;;;5055564;28;20032;-69
2022/06/26 02:32:57;;;;;;;52.17;23.88;;;16.50;99.90;;;;;;5055529;28;20063;-72
2022/06/26 02:35:24;;;;;;;51.22;22.52;;;16.50;99.90;;;;;;5056032;28;20055;-68
2022/06/26 02:37:50;;;;;;;45.97;22.23;;;16.50;99.90;;;;;;5055834;28;20117;-68
2022/06/26 02:40:15;;;;;;;47.03;21.73;;;16.40;99.90;;;;;;5055866;28;20025;-70
2022/06/26 02:42:41;;;;;;;49.45;21.48;;;16.30;99.90;;;;;;5054553;28;20071;-69
2022/06/26 02:45:07;;;;;;;51.00;23.10;;;16.20;99.90;;;;;;5055445;28;20522;-69
2022/06/26 02:47:33;;;;;;;47.60;22.10;;;16.20;99.90;;;;;;5055693;28;20052;-68
2022/06/26 02:49:59;;;;;;;46.45;22.08;;;16.10;99.90;;;;;;5055725;28;20021;-68
2022/06/26 02:52:24;;;;;;;57.40;28.08;;;16.10;99.90;;;;;;5055651;28;20409;-68
2022/06/26 02:54:50;;;;;;;63.28;33.08;;;16.00;99.90;;;;;;5055835;28;20103;-72
2022/06/26 02:57:16;;;;;;;74.03;37.15;;;16.00;99.90;;;;;;5055773;28;20025;-70
2022/06/26 02:59:42;;;;;;;65.13;31.77;;;16.00;99.90;;;;;;5054982;28;20094;-69
2022/06/26 03:02:07;;;;;;;60.45;29.10;;;15.90;99.90;;;;;;5055606;28;20029;-71
2022/06/26 03:04:33;;;;;;;60.33;27.73;;;15.90;99.90;;;;;;5054384;28;20020;-68
2022/06/26 03:06:58;;;;;;;54.97;25.60;;;15.90;99.90;;;;;;5055127;28;20371;-68
2022/06/26 03:09:24;;;;;;;55.92;22.75;;;15.80;99.90;;;;;;5053995;28;20431;-70
2022/06/26 03:11:49;;;;;;;54.78;23.05;;;15.80;99.90;;;;;;5055333;28;20036;-68
2022/06/26 03:14:15;;;;;;;48.45;21.40;;;15.80;99.90;;;;;;5053699;28;20040;-69
2022/06/26 03:16:41;;;;;;;53.03;22.33;;;15.70;99.90;;;;;;5055471;28;20029;-70
2022/06/26 03:19:06;;;;;;;52.17;22.60;;;15.70;99.90;;;;;;5055035;28;20023;-67
2022/06/26 03:21:32;;;;;;;50.40;21.85;;;15.70;99.90;;;;;;5053583;28;20028;-68
2022/06/26 03:24:03;;;;;;;48.00;21.73;;;15.60;99.90;;;;;;5055226;28;20022;-70
2022/06/26 03:26:31;;;;;;;51.30;22.13;;;15.60;99.90;;;;;;5054848;28;20021;-69
2022/06/26 03:28:57;;;;;;;47.33;20.73;;;15.60;99.90;;;;;;5053382;28;20063;-68
2022/06/26 03:31:23;;;;;;;52.22;21.23;;;15.50;99.90;;;;;;5054865;28;20025;-73
2022/06/26 03:33:49;;;;;;;45.78;21.63;;;15.50;99.90;;;;;;5054949;28;20374;-69
2022/06/26 03:36:14;;;;;;;48.00;20.77;;;15.50;99.90;;;;;;5053600;28;20112;-69
2022/06/26 03:38:40;;;;;;;54.13;19.95;;;15.50;99.90;;;;;;5054816;28;20028;-71
2022/06/26 03:41:06;;;;;;;46.30;20.95;;;15.40;99.90;;;;;;5054843;28;20036;-70
2022/06/26 03:43:32;;;;;;;42.28;20.65;;;15.50;99.90;;;;;;5054853;28;20135;-68
2022/06/26 03:45:57;;;;;;;47.40;20.15;;;15.40;99.90;;;;;;5053724;28;20025;-69
2022/06/26 03:48:23;;;;;;;46.28;20.52;;;15.40;99.90;;;;;;5054401;28;20025;-69
2022/06/26 03:50:48;;;;;;;44.13;20.13;;;15.40;99.90;;;;;;5054279;28;20025;-69
2022/06/26 03:53:14;;;;;;;41.90;19.85;;;15.40;99.90;;;;;;5053875;28;20025;-73
2022/06/26 03:55:40;;;;;;;42.72;19.52;;;15.40;99.90;;;;;;5054567;28;20071;-70
2022/06/26 03:58:06;;;;;;;42.00;18.77;;;15.40;99.90;;;;;;5054340;28;20040;-69
2022/06/26 04:00:32;;;;;;;42.40;18.92;;;15.40;99.90;;;;;;5054713;28;20025;-70
2022/06/26 04:03:01;;;;;;;47.72;19.70;;;15.40;99.90;;;;;;5053459;28;20075;-69
2022/06/26 04:05:27;;;;;;;46.25;20.23;;;15.40;99.90;;;;;;5054463;28;20033;-69
2022/06/26 04:07:52;;;;;;;46.30;20.08;;;15.40;99.90;;;;;;5054153;28;20035;-69
2022/06/26 04:10:18;;;;;;;45.15;22.05;;;15.40;99.90;;;;;;5054315;28;20053;-69
2022/06/26 04:12:43;;;;;;;45.05;19.42;;;15.40;99.90;;;;;;5052837;28;20025;-69
2022/06/26 04:15:09;;;;;;;42.70;18.92;;;15.40;99.90;;;;;;5053972;28;20024;-69
2022/06/26 04:17:35;;;;;;;44.83;19.17;;;15.40;99.90;;;;;;5053693;28;20470;-69
2022/06/26 04:20:00;;;;;;;39.53;18.58;;;15.50;99.90;;;;;;5054026;28;20096;-69
2022/06/26 04:22:26;;;;;;;45.17;20.13;;;15.50;99.90;;;;;;5054041;28;20450;-68
2022/06/26 04:24:51;;;;;;;41.45;18.50;;;15.50;99.90;;;;;;5054130;28;20081;-69
2022/06/26 04:27:18;;;;;;;38.95;17.67;;;15.60;99.90;;;;;;5054136;28;20447;-69
2022/06/26 04:29:43;;;;;;;39.30;17.75;;;15.60;99.90;;;;;;5053849;28;20035;-69
2022/06/26 04:32:09;;;;;;;33.42;16.42;;;15.70;99.90;;;;;;5053528;28;20036;-68
2022/06/26 04:34:34;;;;;;;36.13;16.50;;;15.70;99.90;;;;;;5053972;28;20435;-73
2022/06/26 04:37:00;;;;;;;37.80;17.08;;;15.70;99.90;;;;;;5053390;28;20032;-73
2022/06/26 04:39:25;;;;;;;34.90;16.23;;;15.70;99.90;;;;;;5053496;28;20406;-69
2022/06/26 04:41:51;;;;;;;38.22;16.85;;;15.80;99.90;;;;;;5053036;28;20040;-68
2022/06/26 04:44:18;;;;;;;33.28;15.35;;;15.80;99.90;;;;;;5053494;28;20075;-70
2022/06/26 04:46:46;;;;;;;33.65;16.85;;;15.80;99.90;;;;;;5053673;28;20107;-73
2022/06/26 04:49:12;;;;;;;37.88;17.63;;;15.80;99.90;;;;;;5053647;28;20021;-69
2022/06/26 04:51:38;;;;;;;37.22;17.15;;;15.80;99.90;;;;;;5053502;28;20367;-75
2022/06/26 04:54:05;;;;;;;32.47;14.80;;;15.90;99.90;;;;;;5053369;28;20167;-69
2022/06/26 04:56:31;;;;;;;35.60;16.00;;;15.90;99.90;;;;;;5053246;28;20636;-73
2022/06/26 04:58:57;;;;;;;33.97;17.00;;;16.00;99.90;;;;;;5053302;28;20041;-70
2022/06/26 05:01:24;;;;;;;32.42;14.65;;;16.10;99.90;;;;;;5052128;28;20017;-69
2022/06/26 05:03:49;;;;;;;33.15;14.80;;;16.20;99.90;;;;;;5053451;28;20124;-69
2022/06/26 05:06:15;;;;;;;31.25;14.82;;;16.20;99.90;;;;;;5053386;28;20459;-69
2022/06/26 05:08:41;;;;;;;31.58;12.43;;;16.30;99.90;;;;;;5053181;28;20025;-69
2022/06/26 05:11:06;;;;;;;32.28;13.77;;;16.30;99.90;;;;;;5053186;28;20066;-70
2022/06/26 05:13:32;;;;;;;26.15;12.35;;;16.40;99.90;;;;;;5052967;28;20048;-68
2022/06/26 05:15:58;;;;;;;27.65;12.48;;;16.50;99.90;;;;;;5053600;28;20043;-70
2022/06/26 05:18:24;;;;;;;28.75;14.00;;;16.60;99.90;;;;;;5053125;28;20442;-68
2022/06/26 05:20:50;;;;;;;25.33;11.13;;;16.60;99.90;;;;;;5053372;28;20021;-69
2022/06/26 05:23:16;;;;;;;26.13;11.23;;;16.80;99.90;;;;;;5052669;28;20025;-71
2022/06/26 05:25:42;;;;;;;25.08;11.85;;;16.90;99.90;;;;;;5052649;28;20028;-69
2022/06/26 05:28:08;;;;;;;23.10;11.30;;;17.20;99.90;;;;;;5052670;28;20021;-68
2022/06/26 05:30:34;;;;;;;25.20;10.00;;;17.60;99.90;;;;;;5053061;28;20029;-69
2022/06/26 05:33:00;;;;;;;21.25;9.23;;;18.00;99.90;;;;;;5052959;28;20048;-69
2022/06/26 05:35:25;;;;;;;18.73;8.73;;;18.40;99.90;;;;;;5053353;28;20017;-69
2022/06/26 05:37:51;;;;;;;17.38;8.32;;;19.10;99.90;;;;;;5052887;28;20025;-69
2022/06/26 05:40:17;;;;;;;18.38;8.23;;;19.80;99.90;;;;;;5053174;28;20061;-70
2022/06/26 05:42:42;;;;;;;13.20;6.53;;;20.70;99.90;;;;;;5052897;28;20021;-70
2022/06/26 05:45:08;;;;;;;17.92;7.68;;;21.40;99.90;;;;;;5051429;28;20032;-68
2022/06/26 05:47:34;;;;;;;13.68;6.72;;;21.90;99.90;;;;;;5052581;28;20077;-70
2022/06/26 05:49:59;;;;;;;16.80;7.07;;;22.30;99.90;;;;;;5052996;28;20033;-71
2022/06/26 05:52:26;;;;;;;11.10;5.10;;;22.50;99.90;;;;;;5052733;28;20056;-69
2022/06/26 05:54:52;;;;;;;16.73;6.60;;;22.70;99.90;;;;;;5052388;28;20421;-69
2022/06/26 05:57:19;;;;;;;16.40;5.88;;;22.90;99.90;;;;;;5052926;28;20100;-71
2022/06/26 05:59:46;;;;;;;11.80;5.40;;;22.80;99.90;;;;;;5052684;28;20017;-68
2022/06/26 06:02:11;;;;;;;12.57;5.90;;;23.00;99.90;;;;;;5052748;28;20017;-68
2022/06/26 06:04:37;;;;;;;10.60;5.82;;;23.00;99.90;;;;;;5052344;28;20021;-68
2022/06/26 06:07:03;;;;;;;11.70;6.43;;;23.00;99.90;;;;;;5052666;28;20090;-68
2022/06/26 06:09:29;;;;;;;11.05;5.80;;;22.90;99.90;;;;;;5052295;28;20151;-68
2022/06/26 06:11:54;;;;;;;12.38;6.32;;;22.40;99.90;;;;;;5052840;28;20053;-68
2022/06/26 06:14:20;;;;;;;9.68;5.20;;;22.20;99.90;;;;;;5052999;28;20029;-70
2022/06/26 06:16:46;;;;;;;12.43;6.22;;;22.00;99.90;;;;;;5052910;28;20021;-73
2022/06/26 06:19:11;;;;;;;10.35;5.88;;;21.80;99.90;;;;;;5052541;28;20025;-69
2022/06/26 06:21:37;;;;;;;15.55;5.80;;;21.70;99.90;;;;;;5052484;28;20028;-69
2022/06/26 06:24:02;;;;;;;11.82;6.18;;;21.70;99.90;;;;;;5052100;28;20033;-73
2022/06/26 06:26:28;;;;;;;10.50;5.28;;;21.60;99.90;;;;;;5052422;28;20096;-70
2022/06/26 06:28:54;;;;;;;9.43;5.80;;;21.60;99.90;;;;;;5052174;28;20402;-69
2022/06/26 06:31:19;;;;;;;10.60;5.13;;;21.40;99.90;;;;;;5052464;28;20082;-68
2022/06/26 06:33:45;;;;;;;10.80;5.55;;;21.30;99.90;;;;;;5052243;28;20557;-71
2022/06/26 06:36:11;;;;;;;9.45;5.20;;;21.20;99.90;;;;;;5052050;28;20394;-69
2022/06/26 06:38:36;;;;;;;10.52;5.53;;;21.40;99.90;;;;;;5052246;28;20045;-69
2022/06/26 06:41:02;;;;;;;10.02;4.90;;;21.60;99.90;;;;;;5054392;28;20082;-69
2022/06/26 06:43:28;;;;;;;9.60;5.10;;;21.80;99.90;;;;;;5056027;28;20028;-69
2022/06/26 06:45:53;;;;;;;8.35;4.55;;;22.00;99.90;;;;;;5055930;28;20028;-68
2022/06/26 06:48:21;;;;;;;7.60;4.43;;;22.20;99.90;;;;;;5055889;28;20032;-70
2022/06/26 06:50:46;;;;;;;12.18;5.07;;;22.50;99.90;;;;;;5055906;28;20062;-71
2022/06/26 06:53:12;;;;;;;9.15;4.68;;;22.70;99.90;;;;;;5055374;28;20029;-68
2022/06/26 06:55:37;;;;;;;9.23;4.30;;;22.90;99.90;;;;;;5055570;28;20143;-70
2022/06/26 06:58:03;;;;;;;6.03;4.05;;;23.40;99.90;;;;;;5055505;28;20035;-68
2022/06/26 07:00:29;;;;;;;7.57;3.72;;;23.90;99.90;;;;;;5055210;28;20017;-68
2022/06/26 07:03:02;;;;;;;8.63;3.88;;;23.80;99.90;;;;;;5055547;28;20470;-68
2022/06/26 07:05:28;;;;;;;7.78;3.92;;;23.90;99.90;;;;;;5055258;28;20017;-70
2022/06/26 07:07:54;;;;;;;5.00;2.78;;;24.00;99.90;;;;;;5055249;28;20116;-69
2022/06/26 07:10:20;;;;;;;5.60;2.92;;;24.10;99.90;;;;;;5055357;28;20100;-68
2022/06/26 07:12:56;;;;;;;5.13;2.60;;;24.60;99.90;;;;;;5055503;28;20021;-69
2022/06/26 07:15:23;;;;;;;6.35;3.50;;;24.70;99.90;;;;;;5055483;28;20025;-71
2022/06/26 07:17:48;;;;;;;7.30;3.28;;;24.60;99.90;;;;;;5053690;28;20112;-69
2022/06/26 07:20:14;;;;;;;6.72;3.30;;;24.30;99.90;;;;;;5055128;28;20096;-69
2022/06/26 07:22:40;;;;;;;9.45;3.08;;;23.90;99.90;;;;;;5055255;28;20075;-69
2022/06/26 07:25:06;;;;;;;10.73;3.20;;;23.70;99.90;;;;;;5055462;28;20029;-68
2022/06/26 07:27:31;;;;;;;6.43;2.97;;;23.60;99.90;;;;;;5053901;28;20020;-71
2022/06/26 07:29:57;;;;;;;9.85;3.25;;;23.50;99.90;;;;;;5055296;28;20363;-70
2022/06/26 07:32:23;;;;;;;7.75;3.10;;;23.30;99.90;;;;;;5054654;28;20251;-69
2022/06/26 07:34:48;;;;;;;7.05;2.83;;;23.30;99.90;;;;;;5055241;28;20029;-70
2022/06/26 07:37:15;;;;;;;9.55;2.63;;;23.20;99.90;;;;;;5054798;28;20037;-69
2022/06/26 07:39:40;;;;;;;6.30;2.90;;;23.30;99.90;;;;;;5054907;28;20016;-68
2022/06/26 07:42:06;;;;;;;10.05;3.03;;;23.50;99.90;;;;;;5055091;28;20025;-70
2022/06/26 07:44:31;;;;;;;5.10;2.92;;;23.70;99.90;;;;;;5055175;28;20029;-72
2022/06/26 07:46:57;;;;;;;8.73;2.53;;;23.90;99.90;;;;;;5054412;28;20107;-69
2022/06/26 07:49:23;;;;;;;7.68;3.00;;;24.00;99.90;;;;;;5054597;28;20032;-71
2022/06/26 07:51:49;;;;;;;6.25;2.50;;;24.40;99.90;;;;;;5054301;28;20082;-71
2022/06/26 07:54:14;;;;;;;7.88;4.15;;;24.50;99.90;;;;;;5054653;28;20363;-69
2022/06/26 07:56:40;;;;;;;9.48;3.25;;;24.40;99.90;;;;;;5055020;28;20390;-68
2022/06/26 07:59:06;;;;;;;10.32;3.58;;;23.90;99.90;;;;;;5054566;28;20363;-69
2022/06/26 08:01:32;;;;;;;6.93;2.75;;;23.70;99.90;;;;;;5054540;28;20025;-69
2022/06/26 08:03:58;;;;;;;9.07;2.28;;;24.00;99.90;;;;;;5054014;28;20032;-72
2022/06/26 08:06:24;;;;;;;6.18;2.58;;;24.70;99.90;;;;;;5054452;28;20024;-73
2022/06/26 08:08:50;;;;;;;8.32;3.30;;;25.00;99.90;;;;;;5054411;28;20024;-69
2022/06/26 08:11:16;;;;;;;6.07;2.67;;;25.00;99.80;;;;;;5054244;28;20013;-69
2022/06/26 08:13:42;;;;;;;5.55;2.40;;;25.10;99.90;;;;;;5054378;28;20024;-68
2022/06/26 08:16:08;;;;;;;5.95;2.35;;;25.20;98.60;;;;;;5054118;28;20017;-68
2022/06/26 08:18:33;;;;;;;3.10;1.95;;;25.00;98.50;;;;;;5053832;28;20033;-72
2022/06/26 08:22:00;;;;;;;6.47;2.30;;;25.00;99.80;;;;;;5053824;28;20025;-67
2022/06/26 08:23:44;;;;;;;5.00;2.38;;;25.40;99.60;;;;;;5053571;28;20025;-70
2022/06/26 08:26:10;;;;;;;4.10;2.42;;;26.60;99.00;;;;;;5053666;28;20031;-68
2022/06/26 08:28:37;;;;;;;4.07;2.08;;;27.80;97.20;;;;;;5052540;28;20071;-69
2022/06/26 08:31:03;;;;;;;6.70;2.35;;;28.60;95.20;;;;;;5053520;28;20083;-68
2022/06/26 08:33:28;;;;;;;4.72;2.25;;;29.00;93.10;;;;;;5054099;28;20462;-68
2022/06/26 08:35:54;;;;;;;5.72;2.40;;;29.40;92.20;;;;;;5053351;28;20021;-69
2022/06/26 08:38:19;;;;;;;4.82;2.35;;;30.20;92.50;;;;;;5053308;28;20037;-69
2022/06/26 08:40:46;;;;;;;4.22;2.67;;;31.40;91.70;;;;;;5053725;28;20025;-68
2022/06/26 08:43:13;;;;;;;4.07;1.90;;;32.00;89.60;;;;;;5054211;28;20025;-68
2022/06/26 08:45:43;;;;;;;3.90;2.00;;;32.20;83.50;;;;;;5053575;28;20020;-71
2022/06/26 08:48:12;;;;;;;4.07;2.20;;;31.80;83.60;;;;;;5053862;28;20447;-67
2022/06/26 08:50:38;;;;;;;5.18;2.50;;;31.80;84.00;;;;;;5053482;28;20078;-68
2022/06/26 08:53:06;;;;;;;4.80;2.47;;;32.10;83.90;;;;;;5053562;28;20029;-68
2022/06/26 08:55:32;;;;;;;4.32;2.50;;;32.00;83.20;;;;;;5053746;28;20021;-68
2022/06/26 08:57:57;;;;;;;4.45;2.35;;;31.30;83.70;;;;;;5052902;28;20040;-69
2022/06/26 09:00:23;;;;;;;7.70;2.50;;;30.80;83.80;;;;;;5053152;28;20037;-68
2022/06/26 09:02:48;;;;;;;2.72;1.73;;;30.40;85.10;;;;;;5052718;28;20021;-69
2022/06/26 09:05:14;;;;;;;4.90;2.75;;;30.50;83.10;;;;;;5053134;28;20108;-71
2022/06/26 09:07:48;;;;;;;5.43;2.70;;;31.00;83.90;;;;;;5053496;28;20040;-69
2022/06/26 09:10:17;;;;;;;5.32;2.67;;;31.40;83.80;;;;;;5053425;28;20021;-72
2022/06/26 09:12:43;;;;;;;5.32;1.85;;;31.40;83.90;;;;;;5051841;28;20108;-70
2022/06/26 09:15:16;;;;;;;8.60;2.83;;;31.40;82.50;;;;;;5052824;28;20032;-68
2022/06/26 09:17:42;;;;;;;5.05;2.20;;;31.50;81.30;;;;;;5052512;28;20071;-68
2022/06/26 09:20:08;;;;;;;6.80;3.08;;;31.30;82.70;;;;;;5067507;28;20043;-68
2022/06/26 09:22:34;;;;;;;9.27;3.55;;;31.30;82.80;;;;;;5073066;28;20063;-68
2022/06/26 09:25:00;;;;;;;5.97;2.00;;;31.00;82.70;;;;;;5052029;28;20415;-68
2022/06/26 09:27:26;;;;;;;6.55;2.80;;;30.80;82.80;;;;;;5053287;28;20467;-72
2022/06/26 09:29:55;;;;;;;3.75;2.60;;;30.50;83.90;;;;;;5053112;28;20053;-71
2022/06/26 09:32:22;;;;;;;6.72;2.47;;;30.30;84.20;;;;;;5062125;28;20045;-72
2022/06/26 09:34:51;;;;;;;8.65;2.70;;;30.10;84.70;;;;;;5072948;28;20017;-68
2022/06/26 09:37:22;;;;;;;6.07;3.03;;;29.70;86.00;;;;;;5072722;28;20079;-69
2022/06/26 09:39:47;;;;;;;7.32;2.42;;;29.20;86.60;;;;;;5072597;28;20138;-68
2022/06/26 09:42:16;;;;;;;6.60;3.22;;;28.90;87.20;;;;;;5073371;28;20042;-69
2022/06/26 09:44:52;;;;;;;5.32;2.30;;;28.80;87.60;;;;;;5072927;28;20107;-67
2022/06/26 09:47:29;;;;;;;5.53;2.60;;;28.70;86.20;;;;;;5073026;28;20056;-67
2022/06/26 09:50:00;;;;;;;5.32;2.40;;;28.20;87.80;;;;;;5059126;28;20020;-67
2022/06/26 09:52:28;;;;;;;4.63;2.45;;;27.90;88.80;;;;;;5052963;28;20096;-67
2022/06/26 09:54:55;;;;;;;6.53;2.65;;;27.50;88.50;;;;;;5053071;28;20040;-68
2022/06/26 09:57:21;;;;;;;7.75;2.55;;;27.10;90.00;;;;;;5052980;28;20027;-68
2022/06/26 09:59:47;;;;;;;6.88;2.80;;;27.00;90.30;;;;;;5053387;28;20025;-69
2022/06/26 10:07:51;;;;;;;5.63;2.22;;;28.00;90.30;;;;;;5053158;28;20099;-68
2022/06/26 10:10:24;;;;;;;7.10;2.67;;;28.30;87.70;;;;;;5046648;28;20098;-69
2022/06/26 10:12:57;;;;;;;6.53;2.80;;;28.60;89.20;;;;;;5052324;28;20029;-68
2022/06/26 10:15:28;;;;;;;3.45;2.15;;;29.20;89.00;;;;;;5054430;28;20037;-69
2022/06/26 10:18:12;;;;;;;3.85;2.13;;;29.80;86.20;;;;;;5055515;28;20489;-67
2022/06/26 10:20:41;;;;;;;7.95;2.50;;;30.50;83.20;;;;;;5056063;28;20024;-69
2022/06/26 10:23:06;;;;;;;5.30;2.53;;;31.00;84.30;;;;;;5055741;28;20021;-68
2022/06/26 10:25:32;;;;;;;4.68;2.30;;;31.40;83.00;;;;;;5055983;28;20104;-69
2022/06/26 10:28:00;;;;;;;6.53;2.65;;;31.80;82.40;;;;;;5055949;28;20029;-67
2022/06/26 10:30:28;;;;;;;7.00;2.90;;;32.00;79.80;;;;;;5055965;28;20074;-67
2022/06/26 10:33:13;;;;;;;9.68;2.80;;;32.10;80.00;;;;;;5056059;28;20041;-70
2022/06/26 10:35:47;;;;;;;6.25;2.28;;;32.40;78.70;;;;;;5055983;28;20017;-69
2022/06/26 10:38:24;;;;;;;6.20;2.40;;;32.80;78.90;;;;;;5055676;28;20105;-69
2022/06/26 10:43:56;;;;;;;6.38;2.55;;;33.10;79.00;;;;;;5055966;28;20474;-71
2022/06/26 10:46:22;;;;;;;7.40;2.08;;;32.70;78.30;;;;;;5055231;28;20089;-69
2022/06/26 10:48:53;;;;;;;7.82;2.17;;;32.30;78.50;;;;;;5055672;28;20116;-70
2022/06/26 10:51:28;;;;;;;3.97;2.60;;;32.00;79.50;;;;;;5054359;28;20371;-71
2022/06/26 10:53:54;;;;;;;4.45;2.38;;;31.80;79.20;;;;;;5055937;28;20037;-71
2022/06/26 10:56:21;;;;;;;6.10;3.00;;;31.40;77.50;;;;;;5055439;28;20078;-68
2022/06/26 10:58:48;;;;;;;3.88;2.53;;;31.00;78.30;;;;;;5054906;28;20478;-70
2022/06/26 11:01:15;;;;;;;6.53;2.40;;;30.60;79.70;;;;;;5055493;28;20020;-72
2022/06/26 11:03:42;;;;;;;6.07;2.72;;;30.20;80.70;;;;;;5055029;28;20422;-69
2022/06/26 11:06:11;;;;;;;3.40;1.90;;;29.60;80.20;;;;;;5055167;28;20021;-67
2022/06/26 11:08:42;;;;;;;6.88;2.60;;;29.00;82.60;;;;;;5055329;28;20442;-68
2022/06/26 11:11:20;;;;;;;7.60;2.55;;;28.50;84.20;;;;;;5054818;28;20358;-69
2022/06/26 11:13:48;;;;;;;5.63;2.40;;;28.00;85.60;;;;;;5055338;28;20055;-68
2022/06/26 11:16:14;;;;;;;5.15;2.70;;;27.80;86.90;;;;;;5055342;28;20027;-71
2022/06/26 11:18:40;;;;;;;3.72;2.30;;;27.60;87.20;;;;;;5055447;28;20033;-68
2022/06/26 11:21:05;;;;;;;6.72;2.47;;;27.30;88.30;;;;;;5055052;28;20025;-70
2022/06/26 11:23:36;;;;;;;7.10;2.45;;;26.80;89.10;;;;;;5052741;28;20028;-69
2022/06/26 11:26:08;;;;;;;7.40;2.35;;;26.60;89.50;;;;;;5054465;28;20025;-69
2022/06/26 11:28:39;;;;;;;7.32;2.67;;;26.50;89.90;;;;;;5055306;28;20044;-69
2022/06/26 11:31:06;;;;;;;5.38;2.53;;;26.50;90.20;;;;;;5055035;28;20474;-70
2022/06/26 11:33:34;;;;;;;7.00;2.00;;;26.50;90.40;;;;;;5055235;28;20063;-69
2022/06/26 11:36:08;;;;;;;5.28;2.47;;;26.60;90.60;;;;;;5054265;28;20096;-70
2022/06/26 11:38:35;;;;;;;6.63;2.65;;;26.70;90.20;;;;;;5054426;28;20064;-70
2022/06/26 11:41:06;;;;;;;5.80;2.67;;;26.90;90.00;;;;;;5054841;28;20143;-70
2022/06/26 11:43:32;;;;;;;4.70;2.10;;;27.30;90.20;;;;;;5054616;28;20356;-69
2022/06/26 11:45:59;;;;;;;4.63;1.80;;;27.90;89.40;;;;;;5054632;28;20043;-70
2022/06/26 11:48:25;;;;;;;6.88;2.10;;;28.50;88.30;;;;;;5054727;28;20056;-68
2022/06/26 11:50:53;;;;;;;7.50;2.00;;;29.00;87.70;;;;;;5054670;28;20049;-69
2022/06/26 11:53:30;;;;;;;3.90;2.00;;;30.00;84.60;;;;;;5054909;28;20020;-68
2022/06/26 11:55:58;;;;;;;4.60;2.00;;;30.90;83.30;;;;;;5054591;28;20020;-69
2022/06/26 11:58:26;;;;;;;3.72;1.92;;;30.80;82.10;;;;;;5053021;28;20470;-71
2022/06/26 12:01:09;;;;;;;6.40;2.45;;;30.50;83.20;;;;;;5053198;28;20025;-69
2022/06/26 12:03:47;;;;;;;4.40;2.25;;;30.10;83.00;;;;;;5054419;28;20466;-71
2022/06/26 12:06:35;;;;;;;4.88;2.40;;;30.00;83.60;;;;;;5054697;28;20135;-69
2022/06/26 12:09:17;;;;;;;5.20;2.10;;;29.80;81.50;;;;;;5054279;28;20450;-69
2022/06/26 12:11:44;;;;;;;5.18;2.05;;;29.70;82.60;;;;;;5054038;28;20028;-71
2022/06/26 12:14:15;;;;;;;4.55;2.10;;;30.20;82.20;;;;;;5054059;28;20043;-70
2022/06/26 12:17:10;;;;;;;5.85;2.30;;;30.40;81.70;;;;;;5053850;28;20017;-71
2022/06/26 12:19:39;;;;;;;5.60;1.88;;;30.10;81.80;;;;;;5044591;28;20075;-70
2022/06/26 12:22:04;;;;;;;5.25;2.10;;;29.70;82.20;;;;;;5053795;28;20107;-70
2022/06/26 12:24:30;;;;;;;5.07;2.10;;;29.50;83.30;;;;;;5053995;28;20429;-68
2022/06/26 12:26:57;;;;;;;4.47;1.63;;;29.10;83.50;;;;;;5053984;28;20044;-71
2022/06/26 12:29:25;;;;;;;4.70;1.90;;;28.90;80.90;;;;;;5053634;28;20380;-69
2022/06/26 12:31:53;;;;;;;6.93;2.20;;;28.50;79.90;;;;;;5053316;28;20041;-70
2022/06/26 12:34:19;;;;;;;5.43;1.67;;;28.20;79.80;;;;;;5053780;28;20099;-69
2022/06/26 12:36:45;;;;;;;4.75;1.65;;;27.90;79.10;;;;;;5052580;28;20493;-69
2022/06/26 12:39:11;;;;;;;4.50;1.60;;;27.70;80.90;;;;;;5052517;28;20128;-68
2022/06/26 12:41:40;;;;;;;4.72;1.63;;;27.80;79.60;;;;;;5053874;28;20024;-69
2022/06/26 12:44:05;;;;;;;6.03;2.30;;;27.90;80.50;;;;;;5061131;28;20108;-68
2022/06/26 12:46:32;;;;;;;5.03;1.67;;;27.90;80.50;;;;;;5057966;28;20111;-69
2022/06/26 12:49:00;;;;;;;4.13;1.50;;;27.80;81.00;;;;;;5073512;28;20028;-69
2022/06/26 12:51:27;;;;;;;4.85;1.58;;;27.80;77.90;;;;;;5063325;28;20020;-71